Aeroporto :
LOGIN :

Iscrizione | Disclaimer

   EN    FR    IT 

 










Sommario :    VFR   VFR Marginale   IFR   IFR Intensivo   IFR Molto Intensivo
Visibilità : 
Base nubi : 
>= 8 km
>= 3000ft
5 / 8 km
1000 / 3000 ft
1500m / 5 km
500 / 1000 ft
800 / 1500m
200 / 500 ft
< 800m
< 200 ft
Simboli :   Temporali  Nebbia  Neve Forte  Precipitazioni Forti  Vento > 20 kt
SIGMETs :   Varie  Temporali  Ghiacco  Turbolenza  Onda orograficha  Ceneri Vulcaniche






- Altitudine del aeroporto : 505 ft
- Codice IATA : SXB


LFST - Strasbourg

ULTIMO METAR :
  • 191800Z AUTO VRB03KT 9999 OVC052 05/03 Q1019 NOSIG

METARs OBSOLETI :
  • 191730Z AUTO 35001KT 9999 FEW009 OVC052 05/03 Q1019 NOSIG
  • 191700Z AUTO VRB02KT 9999 OVC052 06/03 Q1018 NOSIG
  • 191630Z AUTO 01002KT 9999 OVC054 06/03 Q1018 NOSIG
  • 191600Z AUTO 33003KT 9999 FEW009 OVC054 06/03 Q1018 NOSIG
  • 191530Z AUTO 34004KT 9999 SCT035 BKN041 OVC054 06/03 Q1018 NOSIG

TAF TAF LFST
Valido dal 19 a 18 ore il 20 a 18 ore UTC


191700Z 1918/2018 33003KT 9999 BKN050
PROB40
TEMPO 1921/1923 3000 BR
BECMG 1923/2001 0300 FG VV///
BECMG 2007/2009 3000 BR OVC006
BECMG 2010/2012 9999 NSW BKN013



MetMap, La meteo Aeronautica in un colpo d'occhio ! - Copyright ORBIFLY Dicembre 2007 - Disclaimer

ORBIFLY MET'MAP TEAM :

Programmazione e sviluppo : Alexandra Zaïnal
Concezione e sviluppo : Baudouin d'Aumeries
Co-Programmazione e sviluppo : Marc-Olivier Méhu
Supporto tecnico e logistico : Manuel Goepfert
Aiuto per la traduzione : Arnaldo La Scala

Contatto : metmap@orbifly.com




FONTI E CREDITI :

   NOAA